Time;durP1;ratioP1;P1;durP2;ratioP2;P2;SDS_P1;SDS_P2;PMS_P1;PMS_P2;Temp;Humidity;BMP_temperature;BMP_pressure;BME280_temperature;BME280_humidity;BME280_pressure;Samples;Min_cycle;Max_cycle;Signal;HPM_P1;HPM_P2
2023/01/14 00:01:29;;;;;;;;;4.00;4.00;;;;;12.00;69.69;-19532.47;4953552;28;46150;-91
2023/01/14 00:03:55;;;;;;;;;5.00;3.00;;;;;12.02;69.95;-19532.88;4944107;28;45493;-91
2023/01/14 00:06:23;;;;;;;;;3.00;3.00;;;;;12.12;70.50;-19535.44;4943738;28;45399;-91
2023/01/14 00:08:57;;;;;;;;;4.67;4.00;;;;;12.08;70.07;-19534.38;4949547;28;45722;-92
2023/01/14 00:11:45;;;;;;;;;4.67;3.00;;;;;12.27;70.11;-19539.50;4944463;28;46254;-91
2023/01/14 00:14:10;;;;;;;;;2.00;2.00;;;;;12.30;70.43;-19540.16;4952572;28;45735;-91
2023/01/14 00:16:35;;;;;;;;;2.00;2.00;;;;;12.35;70.62;-19541.50;4950650;28;45603;-91
2023/01/14 00:19:01;;;;;;;;;2.00;2.00;;;;;12.16;70.40;-19536.53;4941228;28;45479;-91
2023/01/14 00:21:27;;;;;;;;;5.67;4.67;;;;;12.37;70.66;-19542.19;4955021;28;45477;-91
2023/01/14 00:23:53;;;;;;;;;4.33;4.33;;;;;12.39;70.87;-19542.72;4940884;28;45450;-91
2023/01/14 00:26:20;;;;;;;;;2.33;2.33;;;;;12.39;70.77;-19542.72;4940034;28;45923;-89
2023/01/14 00:28:47;;;;;;;;;2.00;2.00;;;;;12.41;71.22;-19543.25;4945173;28;45578;-92
2023/01/14 00:31:16;;;;;;;;;3.00;2.00;;;;;12.39;71.57;-19542.59;4943821;28;46626;-91
2023/01/14 00:33:42;;;;;;;;;1.67;1.67;;;;;12.39;71.80;-19542.72;4940518;28;45415;-91
2023/01/14 00:36:11;;;;;;;;;6.67;5.00;;;;;12.40;72.15;-19542.84;4936521;28;45477;-90
2023/01/14 00:38:36;;;;;;;;;3.00;1.00;;;;;12.37;73.12;-19542.03;4948647;28;45477;-91
2023/01/14 00:41:08;;;;;;;;;2.00;2.00;;;;;12.45;73.82;-19544.34;4937484;28;47072;-90
2023/01/14 00:43:35;;;;;;;;;5.00;3.67;;;;;12.24;75.12;-19538.81;4946481;28;45480;-90
2023/01/14 00:46:01;;;;;;;;;1.00;1.00;;;;;12.02;75.45;-19533.03;4935395;28;45472;-89
2023/01/14 00:48:27;;;;;;;;;3.33;2.67;;;;;12.33;75.88;-19540.97;4956298;28;45382;-89
2023/01/14 00:50:52;;;;;;;;;0.67;0.67;;;;;12.27;76.23;-19539.50;4956174;28;46443;-88
2023/01/14 00:53:17;;;;;;;;;3.00;2.00;;;;;12.46;76.59;-19544.47;4944589;28;45513;-89
2023/01/14 00:55:43;;;;;;;;;2.00;2.00;;;;;12.48;77.12;-19544.88;4936704;28;45351;-89
2023/01/14 00:58:09;;;;;;;;;2.33;2.33;;;;;12.46;77.30;-19544.47;4944670;28;46837;-90
2023/01/14 01:00:34;;;;;;;;;1.00;1.00;;;;;12.44;77.30;-19543.94;4925941;28;48089;-90
2023/01/14 01:02:59;;;;;;;;;1.00;1.00;;;;;12.41;77.39;-19543.25;4939790;28;45564;-88
2023/01/14 01:05:25;;;;;;;;;1.33;1.33;;;;;12.40;77.74;-19542.84;4958356;28;45869;-89
2023/01/14 01:07:50;;;;;;;;;2.00;1.67;;;;;12.36;77.85;-19541.91;4952135;28;45531;-89
2023/01/14 01:10:15;;;;;;;;;2.00;2.00;;;;;12.31;77.84;-19540.56;4954003;28;46184;-89
2023/01/14 01:12:41;;;;;;;;;2.00;2.00;;;;;11.58;78.07;-19521.44;4942898;28;45446;-89
2023/01/14 01:15:06;;;;;;;;;1.00;1.00;;;;;11.77;78.22;-19526.41;4955204;28;45439;-89
2023/01/14 01:17:32;;;;;;;;;6.00;1.00;;;;;12.20;78.50;-19537.75;4951296;28;45448;-89
2023/01/14 01:19:57;;;;;;;;;2.00;2.00;;;;;11.98;78.90;-19531.81;4938437;28;46231;-89
2023/01/14 01:22:23;;;;;;;;;3.00;3.00;;;;;12.21;79.17;-19538.00;4947431;28;45643;-89
2023/01/14 01:24:51;;;;;;;;;2.00;2.00;;;;;11.75;79.28;-19525.75;4931184;28;45555;-89
2023/01/14 01:27:16;;;;;;;;;3.00;3.00;;;;;11.46;79.01;-19518.19;4944754;28;45452;-88
2023/01/14 01:29:42;;;;;;;;;4.00;4.00;;;;;12.25;79.29;-19538.94;4952946;28;46154;-90
2023/01/14 01:32:07;;;;;;;;;1.33;1.33;;;;;12.29;79.44;-19540.03;4941506;28;45635;-89
2023/01/14 01:34:33;;;;;;;;;2.00;2.00;;;;;12.06;79.46;-19533.97;4941683;28;45402;-89
2023/01/14 01:36:58;;;;;;;;;2.00;2.00;;;;;12.38;79.42;-19542.31;4946083;28;45580;-89
2023/01/14 01:39:23;;;;;;;;;3.33;3.00;;;;;12.38;79.44;-19542.44;4957007;28;45791;-90
2023/01/14 01:41:49;;;;;;;;;2.00;2.00;;;;;12.31;79.58;-19540.56;4940098;28;45550;-89
2023/01/14 01:44:14;;;;;;;;;2.00;2.00;;;;;12.39;79.33;-19542.59;4939149;28;45724;-89
2023/01/14 01:46:40;;;;;;;;;1.33;1.33;;;;;12.39;79.54;-19542.72;4922378;28;45731;-90
2023/01/14 01:49:17;;;;;;;;;2.00;2.00;;;;;12.44;79.70;-19544.06;4955448;28;45772;-89
2023/01/14 01:52:14;;;;;;;;;3.33;2.00;;;;;12.50;79.85;-19545.41;4943880;28;45434;-89
2023/01/14 01:54:45;;;;;;;;;2.33;2.33;;;;;12.29;80.01;-19540.03;4943883;28;45461;-89
2023/01/14 01:57:14;;;;;;;;;1.33;1.33;;;;;12.46;79.80;-19544.47;4946574;28;45672;-89
2023/01/14 01:59:44;;;;;;;;;2.67;2.67;;;;;12.48;80.34;-19545.00;4927808;28;45539;-90
2023/01/14 02:02:11;;;;;;;;;2.00;2.00;;;;;12.40;80.24;-19542.97;4953140;28;45731;-90
2023/01/14 02:04:36;;;;;;;;;3.00;3.00;;;;;12.63;80.48;-19549.03;4936731;28;45864;-90
2023/01/14 02:07:01;;;;;;;;;2.00;1.00;;;;;12.64;81.18;-19549.19;4942200;28;45494;-90
2023/01/14 02:09:27;;;;;;;;;2.33;2.00;;;;;12.62;81.50;-19548.78;4938437;28;46035;-90
2023/01/14 02:11:55;;;;;;;;;2.00;2.00;;;;;12.67;81.71;-19550.13;4955935;28;46573;-90
2023/01/14 02:14:32;;;;;;;;;3.00;2.00;;;;;12.69;81.89;-19550.53;4957496;28;45519;-90
2023/01/14 02:17:21;;;;;;;;;2.00;0.33;;;;;12.72;82.44;-19551.19;4940561;28;45375;-90
2023/01/14 02:20:14;;;;;;;;;1.00;1.00;;;;;12.75;82.28;-19552.13;4955248;28;45774;-91
2023/01/14 02:23:07;;;;;;;;;3.00;3.00;;;;;12.61;82.42;-19548.50;4938823;28;45387;-90
2023/01/14 02:25:44;;;;;;;;;2.00;2.00;;;;;12.62;83.01;-19548.78;4956044;28;45402;-90
2023/01/14 02:28:16;;;;;;;;;2.00;1.00;;;;;12.73;82.04;-19551.59;4936746;28;45495;-91
2023/01/14 02:30:57;;;;;;;;;1.00;1.00;;;;;12.57;82.21;-19547.44;4919985;28;46207;-89
2023/01/14 02:33:35;;;;;;;;;1.00;1.00;;;;;12.74;82.28;-19551.88;4952710;28;45679;-90
2023/01/14 02:36:26;;;;;;;;;2.00;2.00;;;;;12.75;82.13;-19552.00;4941862;28;45489;-89
2023/01/14 02:39:26;;;;;;;;;1.00;1.00;;;;;12.01;82.21;-19532.63;4850843;29;45561;-90
2023/01/14 02:44:51;;;;;;;;;2.00;1.00;;;;;12.55;82.35;-19546.88;4841710;29;45532;-91
2023/01/14 02:47:21;;;;;;;;;0.00;0.00;;;;;12.71;82.34;-19550.94;4843874;29;45473;-90
2023/01/14 02:49:50;;;;;;;;;2.67;1.00;;;;;12.18;81.90;-19537.06;4843770;29;45388;-92
2023/01/14 02:52:17;;;;;;;;;1.00;1.00;;;;;12.48;82.23;-19544.88;4845468;29;48785;-92
2023/01/14 02:54:54;;;;;;;;;1.00;1.00;;;;;12.72;82.23;-19551.19;4860560;29;45505;-92
2023/01/14 02:57:42;;;;;;;;;1.00;1.00;;;;;12.74;81.75;-19551.75;4852464;29;45603;-92
2023/01/14 03:00:29;;;;;;;;;1.00;1.00;;;;;12.80;81.41;-19553.47;4858865;29;45907;-92
2023/01/14 03:03:13;;;;;;;;;5.00;1.00;;;;;12.81;81.41;-19553.75;4843827;29;47156;-91
2023/01/14 03:05:41;;;;;;;;;4.00;1.00;;;;;12.79;81.16;-19553.22;4831344;29;45512;-92
2023/01/14 03:08:25;;;;;;;;;3.00;1.67;;;;;12.77;81.43;-19552.53;4848607;29;45667;-92
2023/01/14 03:10:59;;;;;;;;;2.00;2.00;;;;;12.31;80.96;-19540.56;4842565;29;45688;-91
2023/01/14 03:13:42;;;;;;;;;1.00;1.00;;;;;12.79;81.07;-19553.09;4855907;29;48093;-92
2023/01/14 03:16:36;;;;;;;;;2.00;2.00;;;;;12.80;80.85;-19553.47;4907636;28;45494;-92
2023/01/14 03:19:09;;;;;;;;;0.00;0.00;;;;;12.61;80.66;-19548.50;4955045;28;45419;-91
2023/01/14 03:21:37;;;;;;;;;0.67;0.67;;;;;12.66;80.39;-19549.84;4940371;28;45459;-91
2023/01/14 03:24:36;;;;;;;;;1.00;1.00;;;;;12.82;80.52;-19554.03;4931110;28;48271;-90
2023/01/14 03:27:13;;;;;;;;;2.00;1.00;;;;;12.09;80.19;-19534.63;4934037;28;46274;-90
2023/01/14 03:29:43;;;;;;;;;0.67;0.67;;;;;12.85;80.13;-19554.84;4923295;28;45708;-89
2023/01/14 03:32:20;;;;;;;;;1.33;0.33;;;;;12.22;79.88;-19538.28;4948680;28;45774;-88
2023/01/14 03:34:56;;;;;;;;;1.33;0.67;;;;;12.21;79.83;-19537.88;4942424;28;45511;-91
2023/01/14 03:37:25;;;;;;;;;0.33;0.33;;;;;12.60;79.87;-19548.25;4921885;28;45873;-90
2023/01/14 03:39:54;;;;;;;;;3.00;1.00;;;;;12.37;79.51;-19542.03;4937528;28;45469;-91
2023/01/14 03:42:23;;;;;;;;;2.33;2.33;;;;;12.36;79.28;-19541.91;4942714;28;45397;-92
2023/01/14 03:44:53;;;;;;;;;7.00;6.00;;;;;12.93;79.02;-19556.72;4937221;28;46149;-89
2023/01/14 03:47:21;;;;;;;;;3.00;2.67;;;;;12.98;79.00;-19558.19;4943052;28;45766;-89
2023/01/14 03:49:47;;;;;;;;;4.67;4.67;;;;;12.48;78.50;-19545.00;4956969;28;45670;-90
2023/01/14 03:52:34;;;;;;;;;5.00;5.00;;;;;12.01;78.38;-19532.75;4935923;28;45372;-90
2023/01/14 03:55:20;;;;;;;;;3.00;1.00;;;;;12.96;78.19;-19557.66;4921393;28;48152;-90
2023/01/14 03:57:52;;;;;;;;;3.00;1.33;;;;;12.98;78.36;-19558.19;4937564;28;45418;-89
2023/01/14 04:00:22;;;;;;;;;2.33;1.00;;;;;12.99;78.29;-19558.31;4943994;28;46734;-90
2023/01/14 04:02:48;;;;;;;;;1.33;1.33;;;;;12.30;78.35;-19540.28;4937155;28;45528;-90
2023/01/14 04:05:15;;;;;;;;;4.33;1.00;;;;;12.73;78.35;-19551.47;4944425;28;45527;-89
2023/01/14 04:07:40;;;;;;;;;3.00;1.00;;;;;12.63;78.03;-19549.03;4955941;28;45465;-89
2023/01/14 04:10:06;;;;;;;;;1.00;1.00;;;;;12.50;78.22;-19545.41;4954491;28;45439;-89
2023/01/14 04:12:32;;;;;;;;;0.00;0.00;;;;;12.02;78.42;-19532.88;4938506;28;45674;-89
2023/01/14 04:17:41;;;;;;;;;4.33;3.00;;;;;12.91;78.33;-19556.31;4939851;28;45398;-93
2023/01/14 04:20:07;;;;;;;;;3.33;1.00;;;;;12.74;78.51;-19551.75;4922432;28;45503;-94
2023/01/14 04:22:33;;;;;;;;;2.00;2.00;;;;;13.05;78.23;-19559.94;4922726;28;45645;-92
2023/01/14 04:24:59;;;;;;;;;3.00;3.00;;;;;13.02;77.69;-19559.13;4922392;28;48318;-93
2023/01/14 04:27:24;;;;;;;;;2.67;2.00;;;;;12.37;78.38;-19542.19;4921998;28;45567;-93
2023/01/14 04:29:49;;;;;;;;;7.67;2.00;;;;;12.53;78.16;-19546.22;4922966;28;45397;-95
2023/01/14 04:32:15;;;;;;;;;4.00;3.67;;;;;13.06;78.36;-19560.34;4943611;28;45723;-94
2023/01/14 04:34:40;;;;;;;;;3.00;1.67;;;;;13.08;78.35;-19560.75;4938917;28;47276;-94
2023/01/14 04:37:07;;;;;;;;;6.00;4.00;;;;;13.06;78.33;-19560.34;4935711;28;45378;-95
2023/01/14 04:39:33;;;;;;;;;1.67;1.67;;;;;12.46;78.11;-19544.59;4933380;28;45795;-93
2023/01/14 04:44:44;;;;;;;;;3.00;1.33;;;;;12.68;78.17;-19550.25;4941639;28;45799;-93
2023/01/14 04:47:10;;;;;;;;;4.00;2.00;;;;;13.07;78.41;-19560.63;4941503;28;45773;-89
2023/01/14 04:49:35;;;;;;;;;1.00;1.00;;;;;12.56;78.17;-19547.03;4956026;28;45627;-89
2023/01/14 04:52:01;;;;;;;;;3.33;1.67;;;;;12.43;77.81;-19543.78;4932839;28;45435;-89
2023/01/14 04:54:26;;;;;;;;;3.00;3.00;;;;;13.06;77.96;-19560.22;4957791;28;45523;-89
2023/01/14 04:56:51;;;;;;;;;5.67;2.67;;;;;13.08;77.89;-19560.88;4954965;28;45461;-90
2023/01/14 04:59:17;;;;;;;;;4.00;2.67;;;;;12.40;77.64;-19542.97;4937664;28;45469;-89
2023/01/14 05:01:43;;;;;;;;;3.00;3.00;;;;;12.77;77.74;-19552.69;4942424;28;45566;-88
2023/01/14 05:04:08;;;;;;;;;5.33;3.33;;;;;12.33;77.88;-19541.09;4957505;28;45476;-89
2023/01/14 05:06:33;;;;;;;;;3.33;3.00;;;;;12.62;77.81;-19548.78;4952242;28;45834;-91
2023/01/14 05:08:58;;;;;;;;;6.00;3.33;;;;;12.92;77.22;-19556.56;4941239;28;45603;-91
2023/01/14 05:11:24;;;;;;;;;4.00;3.00;;;;;12.42;77.68;-19543.53;4941818;28;45450;-91
2023/01/14 05:13:49;;;;;;;;;3.33;3.33;;;;;12.56;77.91;-19547.03;4933994;28;47098;-91
2023/01/14 05:16:16;;;;;;;;;5.33;3.00;;;;;12.43;78.32;-19543.66;4941425;28;45854;-91
2023/01/14 05:18:42;;;;;;;;;3.33;2.33;;;;;12.41;77.95;-19543.13;4936278;28;45542;-89
2023/01/14 05:21:07;;;;;;;;;7.00;3.00;;;;;12.94;77.84;-19556.97;4946745;28;45416;-91
2023/01/14 05:23:32;;;;;;;;;2.67;2.67;;;;;12.88;77.89;-19555.63;4941254;28;45350;-91
2023/01/14 05:25:58;;;;;;;;;1.33;1.33;;;;;12.12;77.81;-19535.59;4923814;28;45978;-92
2023/01/14 05:28:23;;;;;;;;;2.67;1.67;;;;;12.87;77.67;-19555.38;4923951;28;45418;-92
2023/01/14 05:30:48;;;;;;;;;2.00;2.00;;;;;12.53;78.15;-19546.34;4932035;28;45612;-89
2023/01/14 05:33:14;;;;;;;;;2.00;2.00;;;;;12.23;77.64;-19538.53;4948022;28;46104;-89
2023/01/14 05:35:40;;;;;;;;;2.00;1.00;;;;;12.84;77.66;-19554.44;4935015;28;45496;-89
2023/01/14 05:38:06;;;;;;;;;1.33;0.67;;;;;12.62;77.31;-19548.78;4938871;28;45523;-83
2023/01/14 05:40:32;;;;;;;;;1.67;1.33;;;;;12.94;77.25;-19557.13;4945172;28;46178;-83
2023/01/14 05:45:51;;;;;;;;;5.33;2.00;;;;;12.91;77.16;-19556.19;4948537;28;45747;-83
2023/01/14 05:48:20;;;;;;;;;4.67;1.67;;;;;12.77;77.34;-19552.69;4943298;28;45769;-84
2023/01/14 05:50:49;;;;;;;;;2.67;1.33;;;;;12.94;77.46;-19556.97;4932652;28;45356;-83
2023/01/14 05:53:14;;;;;;;;;5.67;3.00;;;;;12.95;77.41;-19557.25;4944022;28;45414;-83
2023/01/14 05:55:40;;;;;;;;;2.67;2.67;;;;;11.57;77.38;-19521.16;4942109;28;45842;-83
2023/01/14 05:58:06;;;;;;;;;2.00;2.00;;;;;12.10;77.12;-19535.03;4931287;28;45437;-83
2023/01/14 06:06:22;;;;;;;;;2.00;2.00;;;;;12.51;77.21;-19545.69;4949013;28;45742;-83
2023/01/14 06:08:54;;;;;;;;;2.67;1.00;;;;;12.43;77.10;-19543.66;4950635;28;45903;-83
2023/01/14 06:11:23;;;;;;;;;1.33;1.33;;;;;12.88;77.16;-19555.63;4941153;28;45372;-82
2023/01/14 06:13:49;;;;;;;;;3.00;2.00;;;;;12.92;77.22;-19556.44;4931742;28;47999;-82
2023/01/14 06:16:15;;;;;;;;;2.00;2.00;;;;;12.68;76.83;-19550.25;4954485;28;45878;-84
2023/01/14 06:18:43;;;;;;;;;1.00;1.00;;;;;12.79;76.94;-19553.09;4935968;28;45862;-84
2023/01/14 06:21:11;;;;;;;;;1.00;1.00;;;;;12.88;77.29;-19555.63;4938149;28;45408;-83
2023/01/14 06:23:37;;;;;;;;;1.33;1.33;;;;;12.37;77.10;-19542.03;4931858;28;46548;-84
2023/01/14 06:26:03;;;;;;;;;2.00;2.00;;;;;11.82;77.05;-19527.75;4939637;28;45836;-83
2023/01/14 06:28:31;;;;;;;;;1.67;1.67;;;;;12.58;77.01;-19547.56;4952385;28;45623;-83
2023/01/14 06:30:56;;;;;;;;;4.00;1.67;;;;;12.86;77.54;-19555.09;4952511;28;45417;-84
2023/01/14 06:33:22;;;;;;;;;2.33;2.00;;;;;12.59;77.13;-19547.97;4952340;28;45456;-83
2023/01/14 06:35:49;;;;;;;;;2.00;1.00;;;;;12.39;77.67;-19542.59;4938589;28;47074;-83
2023/01/14 06:38:14;;;;;;;;;3.67;2.33;;;;;12.81;77.58;-19553.63;4939022;28;45389;-83
2023/01/14 06:40:41;;;;;;;;;2.00;1.00;;;;;12.79;77.43;-19553.09;4954433;28;45370;-85
2023/01/14 06:43:08;;;;;;;;;2.00;2.00;;;;;12.57;78.03;-19547.28;4947555;28;45460;-84
2023/01/14 06:45:34;;;;;;;;;1.00;1.00;;;;;12.25;77.97;-19538.94;4942006;28;45549;-85
2023/01/14 06:48:00;;;;;;;;;3.00;1.00;;;;;12.29;78.28;-19539.88;4943861;28;45568;-83
2023/01/14 06:50:25;;;;;;;;;3.00;1.33;;;;;12.20;78.56;-19537.59;4943210;28;45526;-84
2023/01/14 06:52:52;;;;;;;;;1.67;1.00;;;;;12.72;78.45;-19551.34;4948191;28;45715;-83
2023/01/14 06:55:18;;;;;;;;;1.00;1.00;;;;;12.72;78.47;-19551.19;4942421;28;45370;-83
2023/01/14 06:57:45;;;;;;;;;1.00;1.00;;;;;12.34;78.79;-19541.22;4950172;28;45536;-85
2023/01/14 07:00:11;;;;;;;;;2.00;2.00;;;;;12.72;78.66;-19551.19;4942683;28;45484;-84
2023/01/14 07:02:36;;;;;;;;;2.00;2.00;;;;;12.34;78.53;-19541.22;4941820;28;47671;-84
2023/01/14 07:05:02;;;;;;;;;3.33;2.67;;;;;12.71;78.81;-19551.06;4951002;28;45452;-85
2023/01/14 07:07:27;;;;;;;;;2.00;1.00;;;;;12.65;78.91;-19549.44;4947677;28;45683;-84
2023/01/14 07:09:52;;;;;;;;;2.33;2.00;;;;;12.62;78.59;-19548.78;4946216;28;46685;-83
2023/01/14 07:12:18;;;;;;;;;1.00;1.00;;;;;12.60;79.19;-19548.09;4936660;28;45649;-83
2023/01/14 07:14:43;;;;;;;;;2.00;2.00;;;;;12.41;79.42;-19543.25;4944629;28;45496;-83
2023/01/14 07:17:08;;;;;;;;;4.33;1.67;;;;;12.67;79.18;-19550.13;4936976;28;45550;-83
2023/01/14 07:19:34;;;;;;;;;4.33;2.00;;;;;12.66;79.12;-19549.72;4941811;28;45753;-83
2023/01/14 07:21:59;;;;;;;;;8.33;2.00;;;;;12.60;79.82;-19548.09;4931848;28;46112;-84
2023/01/14 07:24:24;;;;;;;;;3.33;2.00;;;;;12.59;80.02;-19547.84;4949309;28;45446;-83
2023/01/14 07:26:50;;;;;;;;;3.00;2.00;;;;;12.59;79.89;-19547.97;4950203;28;45508;-84
2023/01/14 07:29:15;;;;;;;;;1.67;1.67;;;;;12.20;79.89;-19537.75;4937690;28;45502;-83
2023/01/14 07:31:41;;;;;;;;;4.00;3.00;;;;;12.45;79.91;-19544.19;4930202;28;47744;-84
2023/01/14 07:34:07;;;;;;;;;3.00;1.00;;;;;12.04;79.65;-19533.56;4942284;28;45605;-84
2023/01/14 07:36:32;;;;;;;;;0.00;0.00;;;;;12.56;80.03;-19547.03;4946530;28;45575;-84
2023/01/14 07:38:58;;;;;;;;;3.33;3.33;;;;;12.54;80.34;-19546.63;4946264;28;45460;-83
2023/01/14 07:41:24;;;;;;;;;6.00;2.67;;;;;12.51;80.39;-19545.81;4945378;28;45834;-83
2023/01/14 07:43:49;;;;;;;;;2.67;2.33;;;;;11.45;80.51;-19517.94;4956236;28;45364;-83
2023/01/14 07:46:16;;;;;;;;;2.00;1.67;;;;;12.51;80.67;-19545.81;4941992;28;45770;-83
2023/01/14 07:48:44;;;;;;;;;2.67;2.67;;;;;12.53;80.82;-19546.34;4944733;28;45728;-83
2023/01/14 07:51:10;;;;;;;;;4.67;4.67;;;;;12.58;80.64;-19547.56;4941503;28;46400;-83
2023/01/14 07:53:36;;;;;;;;;6.67;6.00;;;;;12.57;80.85;-19547.44;4941039;28;45551;-84
2023/01/14 07:56:03;;;;;;;;;2.67;2.67;;;;;12.59;81.40;-19547.84;4928600;28;45630;-83
2023/01/14 07:58:29;;;;;;;;;4.33;4.33;;;;;12.14;81.23;-19536.13;4943646;28;45500;-83
2023/01/14 08:00:54;;;;;;;;;4.00;4.00;;;;;12.62;81.35;-19548.63;4946521;28;45518;-83
2023/01/14 08:03:22;;;;;;;;;6.33;5.33;;;;;12.63;81.21;-19549.03;4940482;28;45751;-83
2023/01/14 08:05:48;;;;;;;;;6.00;4.00;;;;;12.63;81.39;-19548.91;4946580;28;45476;-84
2023/01/14 08:08:14;;;;;;;;;3.00;3.00;;;;;12.64;81.77;-19549.19;4952849;28;45468;-82
2023/01/14 08:10:39;;;;;;;;;3.67;3.33;;;;;12.64;81.79;-19549.31;4935466;28;46881;-82
2023/01/14 08:13:04;;;;;;;;;3.00;3.00;;;;;12.38;81.63;-19542.31;4948536;28;45428;-82
2023/01/14 08:15:29;;;;;;;;;2.67;1.00;;;;;12.61;82.02;-19548.50;4947272;28;45397;-82
2023/01/14 08:17:55;;;;;;;;;1.33;1.33;;;;;12.64;82.48;-19549.19;4943498;28;45597;-83
2023/01/14 08:20:22;;;;;;;;;2.00;0.67;;;;;12.65;82.36;-19549.59;4946822;28;45812;-83
2023/01/14 08:22:56;;;;;;;;;1.00;1.00;;;;;12.29;82.04;-19539.88;4923240;28;45786;-84
2023/01/14 08:25:22;;;;;;;;;2.00;2.00;;;;;12.37;82.57;-19542.19;4935329;28;45525;-83
2023/01/14 08:27:48;;;;;;;;;1.67;1.00;;;;;12.71;82.68;-19551.06;4934662;28;45853;-83
2023/01/14 08:30:13;;;;;;;;;0.67;0.67;;;;;12.41;82.60;-19543.13;4947143;28;45532;-85
2023/01/14 08:32:39;;;;;;;;;1.00;1.00;;;;;12.29;82.55;-19539.88;4952966;28;45580;-82
2023/01/14 08:35:05;;;;;;;;;1.67;1.00;;;;;11.84;82.68;-19528.16;4930600;28;45452;-84
2023/01/14 08:37:30;;;;;;;;;0.00;0.00;;;;;11.96;83.01;-19531.28;4926930;28;45450;-85
2023/01/14 08:39:55;;;;;;;;;0.67;0.67;;;;;11.85;83.14;-19528.44;4932195;28;48244;-85
2023/01/14 08:42:21;;;;;;;;;1.67;1.67;;;;;11.80;83.43;-19527.22;4946870;28;45453;-85
2023/01/14 08:44:46;;;;;;;;;1.00;1.00;;;;;12.01;83.63;-19532.63;4954527;28;45475;-84
2023/01/14 08:47:11;;;;;;;;;2.00;1.00;;;;;12.12;83.46;-19535.59;4951840;28;45476;-85
2023/01/14 08:49:37;;;;;;;;;0.33;0.33;;;;;11.93;83.33;-19530.59;4946640;28;45563;-85
2023/01/14 08:52:02;;;;;;;;;4.33;1.33;;;;;11.99;83.38;-19532.09;4943539;28;45448;-86
2023/01/14 08:54:28;;;;;;;;;1.00;1.00;;;;;12.55;83.33;-19546.88;4956173;28;45492;-85
2023/01/14 08:56:55;;;;;;;;;1.00;1.00;;;;;12.32;83.21;-19540.84;4929647;28;45579;-85
2023/01/14 08:59:21;;;;;;;;;2.00;1.00;;;;;12.46;83.04;-19544.59;4956613;28;45799;-85
2023/01/14 09:01:46;;;;;;;;;2.00;1.67;;;;;12.80;83.47;-19553.34;4947671;28;45835;-84
2023/01/14 09:04:12;;;;;;;;;1.00;1.00;;;;;12.66;83.21;-19549.72;4946929;28;45473;-85
2023/01/14 09:17:04;;;;;;;;;1.67;1.33;;;;;12.83;83.14;-19554.28;4953911;28;45511;-84
2023/01/14 09:17:39;;;;;;;;;4.00;1.00;;;;;13.04;82.82;-19559.66;4945145;28;45508;-87
2023/01/14 09:20:10;;;;;;;;;1.00;1.00;;;;;13.06;83.15;-19560.22;4933397;28;45743;-87
2023/01/14 09:22:36;;;;;;;;;3.33;2.00;;;;;13.08;83.32;-19560.75;4938278;28;46177;-86
2023/01/14 09:25:01;;;;;;;;;1.33;1.33;;;;;13.09;83.02;-19561.03;4950299;28;45349;-86
2023/01/14 09:27:29;;;;;;;;;3.67;3.67;;;;;13.18;83.49;-19563.44;4944190;28;45615;-87
2023/01/14 09:29:54;;;;;;;;;3.00;3.00;;;;;12.72;82.77;-19551.19;4948437;28;45686;-87
2023/01/14 09:32:20;;;;;;;;;3.67;3.67;;;;;12.90;82.47;-19556.03;4950112;28;45341;-86
2023/01/14 09:34:52;;;;;;;;;1.67;1.67;;;;;12.91;82.61;-19556.31;4947784;28;45671;-85
2023/01/14 09:37:21;;;;;;;;;10.00;7.00;;;;;13.33;82.19;-19567.22;4950603;28;45866;-85
2023/01/14 09:39:47;;;;;;;;;7.33;6.33;;;;;13.26;82.44;-19565.59;4948558;28;46579;-85
2023/01/14 09:42:26;;;;;;;;;6.67;5.67;;;;;13.41;82.42;-19569.34;4939401;28;45642;-84
2023/01/14 09:44:57;;;;;;;;;2.00;2.00;;;;;13.46;81.96;-19570.69;4949229;28;45657;-86
2023/01/14 09:47:23;;;;;;;;;1.00;1.00;;;;;12.68;81.77;-19550.25;4931846;28;45806;-86
2023/01/14 09:49:51;;;;;;;;;6.33;3.00;;;;;13.03;81.70;-19559.53;4945991;28;46284;-85
2023/01/14 09:52:43;;;;;;;;;2.33;1.33;;;;;13.35;81.91;-19567.88;4942461;28;45441;-85
2023/01/14 09:55:33;;;;;;;;;2.33;2.33;;;;;13.49;81.53;-19571.50;4942455;28;45551;-85
2023/01/14 09:58:08;;;;;;;;;3.00;2.00;;;;;13.05;81.51;-19559.94;4931749;28;45604;-85
2023/01/14 10:00:53;;;;;;;;;4.00;3.00;;;;;13.63;81.63;-19575.16;4943028;28;45435;-90
2023/01/14 10:03:52;;;;;;;;;2.33;2.00;;;;;13.67;81.50;-19576.34;4939217;28;45481;-85
2023/01/14 10:06:18;;;;;;;;;2.00;2.00;;;;;12.92;81.24;-19556.56;4934319;28;45536;-89
2023/01/14 10:08:57;;;;;;;;;3.67;2.33;;;;;13.68;81.39;-19576.50;4949692;28;45734;-89
2023/01/14 10:11:26;;;;;;;;;3.67;2.67;;;;;12.98;81.48;-19558.19;4943304;28;45619;-89
2023/01/14 10:14:04;;;;;;;;;3.00;3.00;;;;;13.55;81.98;-19573.00;4929038;28;45487;-88
2023/01/14 10:16:40;;;;;;;;;4.33;4.00;;;;;12.74;82.05;-19551.88;4940434;28;45520;-85
2023/01/14 10:19:20;;;;;;;;;3.00;3.00;;;;;13.08;82.24;-19560.88;4946053;28;45517;-87
2023/01/14 10:22:03;;;;;;;;;7.67;7.67;;;;;13.29;82.68;-19566.25;4943846;28;46419;-87
2023/01/14 10:24:29;;;;;;;;;1.67;1.67;;;;;13.64;82.22;-19575.53;4950433;28;45810;-89
2023/01/14 10:26:56;;;;;;;;;1.33;1.33;;;;;13.47;82.58;-19571.09;4946561;28;45389;-92
2023/01/14 10:29:23;;;;;;;;;1.67;1.67;;;;;12.77;82.54;-19552.69;4949369;28;45540;-89
2023/01/14 10:31:54;;;;;;;;;3.00;1.67;;;;;13.59;82.67;-19574.19;4939742;28;46565;-89
2023/01/14 10:34:26;;;;;;;;;2.67;2.00;;;;;13.61;82.92;-19574.75;4943895;28;45418;-87
2023/01/14 10:36:52;;;;;;;;;0.67;0.67;;;;;13.64;82.13;-19575.41;4932113;28;45472;-88
2023/01/14 10:39:18;;;;;;;;;2.33;1.67;;;;;13.14;82.55;-19562.22;4931461;28;45587;-86
2023/01/14 10:41:49;;;;;;;;;1.67;1.67;;;;;13.74;82.75;-19578.09;4927760;28;46962;-84
2023/01/14 10:44:33;;;;;;;;;1.67;0.33;;;;;13.72;82.66;-19577.56;4940578;28;45517;-87
2023/01/14 10:47:03;;;;;;;;;0.00;0.00;;;;;13.73;82.52;-19577.97;4944117;28;45451;-86
2023/01/14 10:49:43;;;;;;;;;0.67;0.67;;;;;13.75;83.17;-19578.22;4949916;28;45382;-87
2023/01/14 10:52:25;;;;;;;;;1.33;1.33;;;;;13.73;83.28;-19577.97;4922445;28;48202;-86
2023/01/14 10:54:58;;;;;;;;;2.00;1.67;;;;;13.72;83.53;-19577.56;4952450;28;45418;-87
2023/01/14 10:57:26;;;;;;;;;1.00;1.00;;;;;12.80;83.27;-19553.34;4953147;28;45445;-90
2023/01/14 10:59:53;;;;;;;;;2.67;2.67;;;;;13.76;83.69;-19578.50;4935358;28;45336;-88
2023/01/14 11:02:21;;;;;;;;;1.33;1.33;;;;;13.77;83.70;-19578.78;4942235;28;45722;-86
2023/01/14 11:04:48;;;;;;;;;0.67;0.67;;;;;12.94;83.63;-19556.97;4940739;28;45379;-88
2023/01/14 11:07:22;;;;;;;;;1.33;1.33;;;;;13.58;84.21;-19573.94;4932774;28;47107;-86
2023/01/14 11:09:48;;;;;;;;;1.33;0.33;;;;;13.73;84.25;-19577.84;4951491;28;45453;-84
2023/01/14 11:12:32;;;;;;;;;2.00;1.67;;;;;13.72;84.48;-19577.69;4946713;28;46120;-85
2023/01/14 11:14:59;;;;;;;;;0.67;0.67;;;;;13.42;84.36;-19569.75;4938899;28;45496;-85
2023/01/14 11:17:27;;;;;;;;;5.33;5.00;;;;;12.98;84.48;-19558.06;4956810;28;45907;-85
2023/01/14 11:20:23;;;;;;;;;2.00;0.67;;;;;13.61;84.84;-19574.75;4955464;28;45645;-84
2023/01/14 11:23:00;;;;;;;;;1.67;1.67;;;;;13.71;84.69;-19577.28;4936945;28;46215;-85
2023/01/14 11:25:26;;;;;;;;;10.33;10.00;;;;;13.76;84.47;-19578.63;4937310;28;45466;-85
2023/01/14 11:27:52;;;;;;;;;3.00;2.67;;;;;12.98;84.37;-19558.19;4945085;28;45447;-85
2023/01/14 11:30:19;;;;;;;;;3.00;2.00;;;;;13.78;84.51;-19579.16;4954534;28;45419;-85
2023/01/14 11:32:49;;;;;;;;;2.33;2.33;;;;;13.78;84.55;-19579.16;4936724;28;46478;-85
2023/01/14 11:35:29;;;;;;;;;5.00;4.33;;;;;13.81;84.70;-19579.84;4939445;28;45447;-85
2023/01/14 11:37:56;;;;;;;;;6.33;2.67;;;;;13.86;84.80;-19581.31;4946640;28;45653;-86
2023/01/14 11:41:28;;;;;;;;;3.00;2.67;;;;;13.89;85.05;-19582.00;4945418;28;45511;-86
2023/01/14 11:43:13;;;;;;;;;2.67;2.67;;;;;13.87;85.23;-19581.47;4941242;28;45808;-85
2023/01/14 11:45:38;;;;;;;;;2.00;2.00;;;;;13.86;85.16;-19581.31;4942452;28;45430;-86
2023/01/14 11:48:22;;;;;;;;;2.00;1.67;;;;;13.76;85.15;-19578.50;4948446;28;45698;-86
2023/01/14 11:50:59;;;;;;;;;5.33;5.33;;;;;13.82;85.64;-19580.25;4948117;28;45666;-86
2023/01/14 11:53:40;;;;;;;;;0.67;0.67;;;;;13.78;85.57;-19579.03;4950397;28;45492;-86
2023/01/14 11:56:15;;;;;;;;;1.00;1.00;;;;;13.79;85.90;-19579.31;4956153;28;45485;-86
2023/01/14 11:58:40;;;;;;;;;2.00;1.67;;;;;12.79;85.76;-19553.09;4938597;28;45466;-87
2023/01/14 12:01:14;;;;;;;;;1.67;1.67;;;;;13.32;85.82;-19567.06;4950766;28;45528;-86